Time;durP1;ratioP1;P1;durP2;ratioP2;P2;SDS_P1;SDS_P2;PMS_P1;PMS_P2;Temp;Humidity;BMP_temperature;BMP_pressure;BME280_temperature;BME280_humidity;BME280_pressure;Samples;Min_cycle;Max_cycle;Signal;HPM_P1;HPM_P2
2023/05/02 00:00:00;;;;;;;;;12.33;11.00;;;;;-147.47;100.00;64613.53;5058365;28;45890;-83
2023/05/02 00:02:25;;;;;;;;;12.33;10.67;;;;;-147.47;100.00;64613.53;5059586;28;45786;-82
2023/05/02 00:04:51;;;;;;;;;11.67;11.67;;;;;-147.47;100.00;64613.53;5063389;28;45878;-81
2023/05/02 00:07:16;;;;;;;;;14.33;12.00;;;;;-147.47;100.00;64613.53;5056272;28;45809;-83
2023/05/02 00:09:41;;;;;;;;;14.00;12.33;;;;;-147.47;100.00;64613.53;5060940;28;45908;-84
2023/05/02 00:12:07;;;;;;;;;14.33;13.00;;;;;-147.47;100.00;64613.53;5074815;28;45371;-85
2023/05/02 00:14:32;;;;;;;;;22.67;15.00;;;;;-147.47;100.00;64613.53;5029479;28;46543;-82
2023/05/02 00:16:58;;;;;;;;;12.33;10.67;;;;;-147.47;100.00;64613.53;5058822;28;45588;-81
2023/05/02 00:19:24;;;;;;;;;20.00;13.67;;;;;-147.47;100.00;64613.53;5057293;28;45929;-82
2023/05/02 00:21:49;;;;;;;;;14.00;14.00;;;;;-147.47;100.00;64613.53;5048899;28;45451;-82
2023/05/02 00:24:16;;;;;;;;;13.67;12.67;;;;;-147.47;100.00;64613.53;5056489;28;46512;-82
2023/05/02 00:26:42;;;;;;;;;14.33;12.67;;;;;-147.47;100.00;64613.53;5063247;28;45446;-82
2023/05/02 00:29:07;;;;;;;;;13.33;13.33;;;;;-147.47;100.00;64613.53;5059425;28;46002;-82
2023/05/02 00:31:32;;;;;;;;;17.00;14.00;;;;;-147.47;100.00;64613.53;5052479;28;45791;-83
2023/05/02 00:33:58;;;;;;;;;11.33;11.33;;;;;-147.47;100.00;64613.53;5060976;28;46317;-84
2023/05/02 00:36:23;;;;;;;;;13.67;13.67;;;;;-147.47;100.00;64613.53;5065543;28;45683;-82
2023/05/02 00:38:49;;;;;;;;;15.00;13.67;;;;;-147.47;100.00;64613.53;5049229;28;45588;-82
2023/05/02 00:41:16;;;;;;;;;15.33;15.33;;;;;-147.47;100.00;64613.53;5054857;28;45435;-82
2023/05/02 00:43:41;;;;;;;;;16.33;12.33;;;;;-147.47;100.00;64613.53;5037767;28;47116;-83
2023/05/02 00:46:07;;;;;;;;;13.00;12.00;;;;;-147.47;100.00;64613.53;5054221;28;45482;-81
2023/05/02 00:48:34;;;;;;;;;19.33;15.00;;;;;-147.47;100.00;64613.53;5055728;28;45596;-82
2023/05/02 00:51:03;;;;;;;;;13.67;13.67;;;;;-147.47;100.00;64613.53;5061170;28;45556;-83
2023/05/02 00:53:29;;;;;;;;;13.67;13.00;;;;;-147.47;100.00;64613.53;5055310;28;47374;-83
2023/05/02 00:55:57;;;;;;;;;12.00;10.33;;;;;-147.47;100.00;64613.53;5067815;28;45397;-80
2023/05/02 00:58:23;;;;;;;;;13.00;10.00;;;;;-147.47;100.00;64613.53;5067586;28;45413;-80
2023/05/02 01:01:01;;;;;;;;;17.33;14.00;;;;;-147.47;100.00;64613.53;5070763;28;45309;-82
2023/05/02 01:03:30;;;;;;;;;12.67;12.00;;;;;-147.47;100.00;64613.53;5065433;28;45781;-83
2023/05/02 01:06:09;;;;;;;;;18.67;12.67;;;;;-147.47;100.00;64613.53;5062331;28;45379;-83
2023/05/02 01:09:01;;;;;;;;;17.33;15.00;;;;;-147.47;100.00;64613.53;5060318;28;45860;-82
2023/05/02 01:11:50;;;;;;;;;16.00;12.00;;;;;-147.47;100.00;64613.53;5071730;28;45708;-82
2023/05/02 01:14:17;;;;;;;;;13.67;12.33;;;;;-147.47;100.00;64613.53;5052710;28;45530;-81
2023/05/02 01:16:45;;;;;;;;;17.67;14.33;;;;;-147.47;100.00;64613.53;5061456;28;45931;-82
2023/05/02 01:19:25;;;;;;;;;17.67;15.00;;;;;-147.47;100.00;64613.53;5055214;28;45894;-81
2023/05/02 01:21:53;;;;;;;;;17.33;15.00;;;;;-147.47;100.00;64613.53;5051503;28;45874;-81
2023/05/02 01:24:26;;;;;;;;;15.33;14.33;;;;;-147.47;100.00;64613.53;5035213;28;45526;-81
2023/05/02 01:27:10;;;;;;;;;16.00;13.33;;;;;-147.47;100.00;64613.53;5059362;28;45825;-82
2023/05/02 01:29:38;;;;;;;;;14.00;14.00;;;;;-147.47;100.00;64613.53;5045093;28;45644;-80
2023/05/02 01:32:06;;;;;;;;;15.00;13.00;;;;;-147.47;100.00;64613.53;5059429;28;45564;-84
2023/05/02 01:34:35;;;;;;;;;18.33;14.00;;;;;-147.47;100.00;64613.53;5042798;28;45590;-81
2023/05/02 01:37:03;;;;;;;;;17.00;15.00;;;;;-147.47;100.00;64613.53;5063703;28;45465;-82
2023/05/02 01:39:29;;;;;;;;;17.67;14.67;;;;;-147.47;100.00;64613.53;5032405;28;45945;-82
2023/05/02 01:41:58;;;;;;;;;18.00;16.00;;;;;-147.47;100.00;64613.53;5060521;28;45423;-82
2023/05/02 01:44:26;;;;;;;;;14.33;10.33;;;;;-147.47;100.00;64613.53;5061325;28;46278;-80
2023/05/02 01:46:53;;;;;;;;;15.33;14.33;;;;;-147.47;100.00;64613.53;5054152;28;45783;-81
2023/05/02 01:49:22;;;;;;;;;17.00;14.33;;;;;-147.47;100.00;64613.53;5054687;28;45908;-81
2023/05/02 01:51:50;;;;;;;;;17.33;16.33;;;;;-147.47;100.00;64613.53;5045470;28;45741;-81
2023/05/02 01:54:19;;;;;;;;;22.00;19.00;;;;;-147.47;100.00;64613.53;5057332;28;47716;-81
2023/05/02 01:56:45;;;;;;;;;23.00;18.00;;;;;-147.47;100.00;64613.53;5038744;28;45966;-82
2023/05/02 01:59:20;;;;;;;;;22.33;16.33;;;;;-147.47;100.00;64613.53;5051293;28;45637;-81
2023/05/02 02:01:48;;;;;;;;;18.33;17.00;;;;;-147.47;100.00;64613.53;5058641;28;45719;-81
2023/05/02 02:04:16;;;;;;;;;18.00;18.00;;;;;-147.47;100.00;64613.53;5059996;28;46473;-81
2023/05/02 02:06:47;;;;;;;;;21.67;18.00;;;;;-147.47;100.00;64613.53;5057973;28;45450;-80
2023/05/02 02:09:13;;;;;;;;;22.67;18.00;;;;;-147.47;100.00;64613.53;5057529;28;45875;-81
2023/05/02 02:12:18;;;;;;;;;20.00;18.67;;;;;-147.47;100.00;64613.53;5057566;28;45573;-82
2023/05/02 02:14:49;;;;;;;;;18.00;16.33;;;;;-147.47;100.00;64613.53;5043262;28;45847;-80
2023/05/02 02:17:23;;;;;;;;;16.67;15.33;;;;;-147.47;100.00;64613.53;5049152;28;45725;-81
2023/05/02 02:19:54;;;;;;;;;25.00;20.67;;;;;-147.47;100.00;64613.53;5056001;28;45436;-81
2023/05/02 02:22:22;;;;;;;;;26.33;19.33;;;;;-147.47;100.00;64613.53;5056336;28;45735;-82
2023/05/02 02:24:51;;;;;;;;;19.00;16.00;;;;;-147.47;100.00;64613.53;5037111;28;47285;-81
2023/05/02 02:27:17;;;;;;;;;21.67;20.00;;;;;-147.47;100.00;64613.53;5060678;28;45724;-81
2023/05/02 02:29:43;;;;;;;;;27.00;22.33;;;;;-147.47;100.00;64613.53;5056549;28;45494;-81
2023/05/02 02:32:08;;;;;;;;;15.67;14.00;;;;;-147.47;100.00;64613.53;5073169;28;45478;-81
2023/05/02 02:34:34;;;;;;;;;22.33;22.33;;;;;-147.47;100.00;64613.53;5054562;28;45473;-81
2023/05/02 02:37:05;;;;;;;;;19.67;19.67;;;;;-147.47;100.00;64613.53;5058221;28;45671;-84
2023/05/02 02:39:49;;;;;;;;;19.67;18.67;;;;;-147.47;100.00;64613.53;5044667;28;45440;-81
2023/05/02 02:42:35;;;;;;;;;26.67;23.00;;;;;-147.47;100.00;64613.53;5057944;28;45596;-81
2023/05/02 02:45:05;;;;;;;;;24.00;19.33;;;;;-147.47;100.00;64613.53;5053409;28;45869;-81
2023/05/02 02:47:40;;;;;;;;;23.00;18.33;;;;;-147.47;100.00;64613.53;5054738;28;45463;-81
2023/05/02 02:50:17;;;;;;;;;24.00;21.33;;;;;-147.47;100.00;64613.53;5049426;28;45910;-82
2023/05/02 02:52:54;;;;;;;;;24.00;23.67;;;;;-147.47;100.00;64613.53;5061716;28;45746;-81
2023/05/02 02:55:47;;;;;;;;;24.67;20.33;;;;;-147.47;100.00;64613.53;5063564;28;45388;-80
2023/05/02 02:58:30;;;;;;;;;25.67;22.67;;;;;-147.47;100.00;64613.53;5054930;28;45815;-82
2023/05/02 03:00:58;;;;;;;;;21.00;19.00;;;;;-147.47;100.00;64613.53;5050621;28;45478;-82
2023/05/02 03:03:27;;;;;;;;;22.67;19.00;;;;;-147.47;100.00;64613.53;5052341;28;45651;-82
2023/05/02 03:05:55;;;;;;;;;24.67;23.00;;;;;-147.47;100.00;64613.53;5049861;28;46999;-82
2023/05/02 03:08:21;;;;;;;;;22.67;20.00;;;;;-147.47;100.00;64613.53;5058694;28;45641;-82
2023/05/02 03:10:46;;;;;;;;;28.67;23.67;;;;;-147.47;100.00;64613.53;5065025;28;45757;-82
2023/05/02 03:13:12;;;;;;;;;23.33;19.67;;;;;-147.47;100.00;64613.53;5066230;28;45770;-80
2023/05/02 03:16:04;;;;;;;;;24.00;21.00;;;;;-147.47;100.00;64613.53;5058393;28;46121;-83
2023/05/02 03:18:29;;;;;;;;;22.33;19.67;;;;;-147.47;100.00;64613.53;5062798;28;45494;-84
2023/05/02 03:20:55;;;;;;;;;20.33;20.00;;;;;-147.47;100.00;64613.53;5056005;28;45386;-83
2023/05/02 03:23:21;;;;;;;;;23.67;20.00;;;;;-147.47;100.00;64613.53;5055263;28;45787;-84
2023/05/02 03:25:47;;;;;;;;;21.00;20.67;;;;;-147.47;100.00;64613.53;5037531;28;47804;-83
2023/05/02 03:28:13;;;;;;;;;21.67;17.33;;;;;-147.47;100.00;64613.53;5054774;28;45486;-83
2023/05/02 03:30:40;;;;;;;;;24.33;21.67;;;;;-147.47;100.00;64613.53;5055226;28;45493;-82
2023/05/02 03:33:07;;;;;;;;;27.33;26.33;;;;;-147.47;100.00;64613.53;5060949;28;45606;-84
2023/05/02 03:35:33;;;;;;;;;22.33;21.00;;;;;-147.47;100.00;64613.53;5048981;28;45820;-84
2023/05/02 03:37:58;;;;;;;;;28.67;24.67;;;;;-147.47;100.00;64613.53;5061387;28;45920;-83
2023/05/02 03:40:24;;;;;;;;;27.67;20.33;;;;;-147.47;100.00;64613.53;5052144;28;45325;-84
2023/05/02 03:42:50;;;;;;;;;29.00;23.00;;;;;-147.47;100.00;64613.53;5053951;28;45560;-83
2023/05/02 03:45:15;;;;;;;;;27.00;19.33;;;;;-147.47;100.00;64613.53;5057019;28;46026;-82
2023/05/02 03:47:41;;;;;;;;;25.67;23.67;;;;;-147.47;100.00;64613.53;5055841;28;45929;-84
2023/05/02 03:50:07;;;;;;;;;20.67;20.67;;;;;-147.47;100.00;64613.53;5050546;28;45814;-84
2023/05/02 03:52:32;;;;;;;;;23.33;21.33;;;;;-147.47;100.00;64613.53;5056195;28;45487;-83
2023/05/02 03:55:00;;;;;;;;;25.33;21.67;;;;;-147.47;100.00;64613.53;5062229;28;45579;-84
2023/05/02 03:57:25;;;;;;;;;25.00;21.67;;;;;-147.47;100.00;64613.53;5036815;28;45751;-82
2023/05/02 03:59:51;;;;;;;;;28.00;20.33;;;;;-147.47;100.00;64613.53;5045919;28;45458;-85
2023/05/02 04:02:16;;;;;;;;;27.67;22.33;;;;;-147.47;100.00;64613.53;5050566;28;45759;-82
2023/05/02 04:04:42;;;;;;;;;27.33;22.00;;;;;-147.47;100.00;64613.53;5055003;28;46319;-82
2023/05/02 04:07:08;;;;;;;;;27.33;23.00;;;;;-147.47;100.00;64613.53;5071288;28;45690;-82
2023/05/02 04:09:34;;;;;;;;;26.67;23.67;;;;;-147.47;100.00;64613.53;5056297;28;45477;-83
2023/05/02 04:12:00;;;;;;;;;28.00;26.00;;;;;-147.47;100.00;64613.53;5042048;28;46081;-82
2023/05/02 04:14:26;;;;;;;;;26.00;26.00;;;;;-147.47;100.00;64613.53;5051420;28;46391;-82
2023/05/02 04:16:51;;;;;;;;;28.67;21.33;;;;;-147.47;100.00;64613.53;5053580;28;45411;-85
2023/05/02 04:19:18;;;;;;;;;30.33;26.33;;;;;-147.47;100.00;64613.53;5058538;28;45421;-85
2023/05/02 04:21:44;;;;;;;;;25.00;23.67;;;;;-147.47;100.00;64613.53;5066021;28;45481;-82
2023/05/02 04:24:09;;;;;;;;;28.33;27.00;;;;;-147.47;100.00;64613.53;5077769;28;45405;-84
2023/05/02 04:26:35;;;;;;;;;27.67;24.67;;;;;-147.47;100.00;64613.53;5061096;28;45410;-83
2023/05/02 04:29:01;;;;;;;;;22.33;17.00;;;;;-147.47;100.00;64613.53;5064237;28;44738;-83
2023/05/02 04:31:26;;;;;;;;;28.33;25.00;;;;;-147.47;100.00;64613.53;5048398;28;45977;-84
2023/05/02 04:33:52;;;;;;;;;42.00;33.00;;;;;-147.47;100.00;64613.53;5063120;28;45397;-83
2023/05/02 04:36:20;;;;;;;;;43.67;37.00;;;;;-147.47;100.00;64613.53;5053063;28;45415;-85
2023/05/02 04:38:46;;;;;;;;;34.33;31.00;;;;;-147.47;100.00;64613.53;5069187;28;45426;-85
2023/05/02 04:41:12;;;;;;;;;28.67;24.67;;;;;-147.47;100.00;64613.53;5074234;28;45879;-83
2023/05/02 04:43:37;;;;;;;;;33.67;25.33;;;;;-147.47;100.00;64613.53;5047092;28;46261;-84
2023/05/02 04:46:03;;;;;;;;;13.00;9.67;;;;;-147.47;100.00;64613.53;5054458;28;45562;-84
2023/05/02 04:48:28;;;;;;;;;30.67;29.33;;;;;-147.47;100.00;64613.53;5049456;28;45348;-84
2023/05/02 04:50:54;;;;;;;;;34.00;29.33;;;;;-147.47;100.00;64613.53;5045912;28;46035;-86
2023/05/02 04:53:22;;;;;;;;;39.33;31.00;;;;;-147.47;100.00;64613.53;5047391;28;47447;-84
2023/05/02 04:55:47;;;;;;;;;28.00;23.33;;;;;-147.47;100.00;64613.53;5051169;28;45951;-85
2023/05/02 04:58:13;;;;;;;;;26.67;23.33;;;;;-147.47;100.00;64613.53;5027636;28;45375;-84
2023/05/02 05:00:39;;;;;;;;;35.67;30.00;;;;;-147.47;100.00;64613.53;5067950;28;45418;-84
2023/05/02 05:03:07;;;;;;;;;35.67;27.33;;;;;-147.47;100.00;64613.53;5063626;28;45545;-84
2023/05/02 05:05:46;;;;;;;;;31.33;29.00;;;;;-147.47;100.00;64613.53;5083198;28;45467;-87
2023/05/02 05:08:11;;;;;;;;;29.33;22.00;;;;;-147.47;100.00;64613.53;5068991;28;45300;-83
2023/05/02 05:10:39;;;;;;;;;33.33;30.67;;;;;-147.47;100.00;64613.53;5063950;28;45948;-85
2023/05/02 05:13:04;;;;;;;;;34.00;25.33;;;;;-147.47;100.00;64613.53;5071312;28;45396;-86
2023/05/02 05:15:30;;;;;;;;;36.00;30.00;;;;;-147.47;100.00;64613.53;5045189;28;44776;-86
2023/05/02 05:17:56;;;;;;;;;29.33;27.67;;;;;-147.47;100.00;64613.53;5075257;28;46190;-86
2023/05/02 05:20:21;;;;;;;;;26.67;25.33;;;;;-147.47;100.00;64613.53;5068264;28;45937;-84
2023/05/02 05:22:50;;;;;;;;;23.33;21.67;;;;;-147.47;100.00;64613.53;5067762;28;46000;-85
2023/05/02 05:25:18;;;;;;;;;23.00;20.00;;;;;-147.47;100.00;64613.53;5055652;28;44864;-82
2023/05/02 05:27:46;;;;;;;;;27.00;20.67;;;;;-147.47;100.00;64613.53;5069039;28;44761;-81
2023/05/02 05:30:12;;;;;;;;;20.67;17.00;;;;;-147.47;100.00;64613.53;5075757;28;45155;-84
2023/05/02 05:32:38;;;;;;;;;24.33;20.33;;;;;-147.47;100.00;64613.53;5087422;28;45428;-80
2023/05/02 05:35:03;;;;;;;;;25.67;21.67;;;;;-147.47;100.00;64613.53;5080931;28;44836;-81
2023/05/02 05:37:29;;;;;;;;;25.00;20.00;;;;;-147.47;100.00;64613.53;5065926;28;45415;-83
2023/05/02 05:39:54;;;;;;;;;21.33;19.33;;;;;-147.47;100.00;64613.53;5064227;28;45955;-79
2023/05/02 05:42:20;;;;;;;;;27.67;21.33;;;;;-147.47;100.00;64613.53;5081080;28;45605;-85
2023/05/02 05:44:46;;;;;;;;;17.67;17.00;;;;;-147.47;100.00;64613.53;5066481;28;44893;-85
2023/05/02 05:47:11;;;;;;;;;29.33;22.67;;;;;-147.47;100.00;64613.53;5061809;28;44816;-85
2023/05/02 05:49:37;;;;;;;;;15.00;12.67;;;;;-147.47;100.00;64613.53;5053352;28;45471;-86
2023/05/02 05:52:05;;;;;;;;;18.00;14.67;;;;;-147.47;100.00;64613.53;5041942;28;46045;-86
2023/05/02 05:54:30;;;;;;;;;21.67;19.33;;;;;-147.47;100.00;64613.53;5070841;28;45615;-81
2023/05/02 05:56:56;;;;;;;;;22.67;18.00;;;;;-147.47;100.00;64613.53;5066367;28;45810;-86
2023/05/02 05:59:22;;;;;;;;;18.33;14.00;;;;;-147.47;100.00;64613.53;5046265;28;45515;-85
2023/05/02 06:01:47;;;;;;;;;18.00;18.00;;;;;-147.47;100.00;64613.53;5060844;28;46840;-86
2023/05/02 06:04:12;;;;;;;;;20.00;15.67;;;;;-147.47;100.00;64613.53;5056426;28;45676;-85
2023/05/02 06:06:38;;;;;;;;;23.67;19.67;;;;;-147.47;100.00;64613.53;5059643;28;46167;-83
2023/05/02 06:09:03;;;;;;;;;26.00;20.67;;;;;-147.47;100.00;64613.53;5053251;28;45482;-82
2023/05/02 06:11:28;;;;;;;;;19.00;15.33;;;;;-147.47;100.00;64613.53;5044280;28;45816;-83
2023/05/02 06:13:54;;;;;;;;;27.00;19.67;;;;;-147.47;100.00;64613.53;5034927;28;46006;-83
2023/05/02 06:16:20;;;;;;;;;21.00;17.33;;;;;-147.47;100.00;64613.53;5056705;28;45777;-81
2023/05/02 06:18:46;;;;;;;;;20.67;17.67;;;;;-147.47;100.00;64613.53;5031384;28;45895;-82
2023/05/02 06:21:12;;;;;;;;;24.00;19.67;;;;;-147.47;100.00;64613.53;5056498;28;45806;-84
2023/05/02 06:23:38;;;;;;;;;28.67;21.67;;;;;-147.47;100.00;64613.53;5057201;28;45766;-85
2023/05/02 06:26:04;;;;;;;;;26.00;24.67;;;;;-147.47;100.00;64613.53;5057591;28;45771;-85
2023/05/02 06:28:30;;;;;;;;;22.00;18.33;;;;;-147.47;100.00;64613.53;5053098;28;45380;-80
2023/05/02 06:31:04;;;;;;;;;22.33;18.67;;;;;-147.47;100.00;64613.53;5062754;28;45866;-83
2023/05/02 06:33:30;;;;;;;;;25.33;21.67;;;;;-147.47;100.00;64613.53;5064266;28;45533;-83
2023/05/02 06:35:57;;;;;;;;;27.33;25.33;;;;;-147.47;100.00;64613.53;5062048;28;46073;-83
2023/05/02 06:38:23;;;;;;;;;23.33;20.33;;;;;-147.47;100.00;64613.53;5056240;28;45384;-82
2023/05/02 06:40:49;;;;;;;;;25.33;23.00;;;;;-147.47;100.00;64613.53;5046210;28;46989;-81
2023/05/02 06:43:14;;;;;;;;;20.67;18.33;;;;;-147.47;100.00;64613.53;5051066;28;45549;-83
2023/05/02 06:45:40;;;;;;;;;31.33;24.67;;;;;-147.47;100.00;64613.53;5053106;28;45378;-81
2023/05/02 06:48:07;;;;;;;;;29.33;26.33;;;;;-147.47;100.00;64613.53;5055765;28;45397;-82
2023/05/02 06:50:33;;;;;;;;;25.00;23.00;;;;;-147.47;100.00;64613.53;5056038;28;46943;-81
2023/05/02 06:52:58;;;;;;;;;18.67;17.33;;;;;-147.47;100.00;64613.53;5046915;28;45798;-80
2023/05/02 06:55:23;;;;;;;;;19.33;16.00;;;;;-147.47;100.00;64613.53;5054159;28;45673;-83
2023/05/02 06:57:50;;;;;;;;;22.33;19.00;;;;;-147.47;100.00;64613.53;5043535;28;45840;-81
2023/05/02 07:00:16;;;;;;;;;20.33;16.33;;;;;-147.47;100.00;64613.53;5063674;28;45376;-83
2023/05/02 07:02:43;;;;;;;;;24.67;19.67;;;;;-147.47;100.00;64613.53;5058293;28;46015;-82
2023/05/02 07:05:09;;;;;;;;;16.67;15.67;;;;;-147.47;100.00;64613.53;5064741;28;45442;-82
2023/05/02 07:07:34;;;;;;;;;18.67;17.67;;;;;-147.47;100.00;64613.53;5050056;28;45793;-81
2023/05/02 07:10:00;;;;;;;;;17.67;16.67;;;;;-147.47;100.00;64613.53;5061390;28;46675;-83
2023/05/02 07:12:28;;;;;;;;;24.67;15.33;;;;;-147.47;100.00;64613.53;5057466;28;45430;-81
2023/05/02 07:14:56;;;;;;;;;21.00;17.00;;;;;-147.47;100.00;64613.53;5056183;28;45704;-81
2023/05/02 07:17:22;;;;;;;;;27.33;21.33;;;;;-147.47;100.00;64613.53;5051192;28;46419;-84
2023/05/02 07:19:47;;;;;;;;;30.67;22.67;;;;;-147.47;100.00;64613.53;5057992;28;45881;-81
2023/05/02 07:22:13;;;;;;;;;22.33;19.67;;;;;-147.47;100.00;64613.53;5055011;28;45554;-82
2023/05/02 07:24:41;;;;;;;;;20.67;18.67;;;;;-147.47;100.00;64613.53;5055003;28;45635;-84
2023/05/02 07:27:11;;;;;;;;;18.33;18.00;;;;;-147.47;100.00;64613.53;5027924;28;46505;-84
2023/05/02 07:29:38;;;;;;;;;22.33;18.33;;;;;-147.47;100.00;64613.53;5058891;28;45537;-80
2023/05/02 07:32:04;;;;;;;;;16.00;16.00;;;;;-147.47;100.00;64613.53;5068705;28;45524;-83
2023/05/02 07:34:30;;;;;;;;;23.67;17.67;;;;;-147.47;100.00;64613.53;5066135;28;45522;-81
2023/05/02 07:36:56;;;;;;;;;19.33;16.67;;;;;-147.47;100.00;64613.53;5066776;28;45786;-80
2023/05/02 07:39:24;;;;;;;;;21.33;18.67;;;;;-147.47;100.00;64613.53;5035271;28;47005;-81
2023/05/02 07:41:53;;;;;;;;;21.00;17.67;;;;;-147.47;100.00;64613.53;5053491;28;45763;-81
2023/05/02 07:44:19;;;;;;;;;18.67;15.33;;;;;-147.47;100.00;64613.53;5058164;28;45419;-81
2023/05/02 07:46:44;;;;;;;;;25.00;20.67;;;;;-147.47;100.00;64613.53;5052797;28;46070;-78
2023/05/02 07:49:10;;;;;;;;;24.67;19.67;;;;;-147.47;100.00;64613.53;5061997;28;46575;-81
2023/05/02 07:51:35;;;;;;;;;28.00;21.67;;;;;-147.47;100.00;64613.53;5059213;28;45759;-83
2023/05/02 07:54:01;;;;;;;;;15.33;13.00;;;;;-147.47;100.00;64613.53;5056421;28;45517;-81
2023/05/02 07:56:27;;;;;;;;;22.67;16.67;;;;;-147.47;100.00;64613.53;5058657;28;45862;-82
2023/05/02 07:58:52;;;;;;;;;22.00;21.00;;;;;-147.47;100.00;64613.53;5051756;28;45695;-81
2023/05/02 08:01:18;;;;;;;;;20.67;20.67;;;;;-147.47;100.00;64613.53;5056262;28;45835;-81
2023/05/02 08:03:44;;;;;;;;;17.00;16.75;;;;;-147.47;100.00;64613.53;5037275;28;45603;-81
2023/05/02 08:06:10;;;;;;;;;19.00;18.33;;;;;-147.47;100.00;64613.53;5055499;28;45833;-82
2023/05/02 08:08:36;;;;;;;;;5.67;4.33;;;;;-147.47;100.00;64613.53;5061058;28;45473;-81
2023/05/02 08:11:02;;;;;;;;;19.00;17.25;;;;;-147.47;100.00;64613.53;5055783;28;45831;-82
2023/05/02 08:13:28;;;;;;;;;23.33;20.33;;;;;-147.47;100.00;64613.53;5047597;28;45665;-80
2023/05/02 08:15:57;;;;;;;;;23.25;20.50;;;;;-147.47;100.00;64613.53;5044696;28;46102;-83
2023/05/02 08:18:26;;;;;;;;;19.00;19.00;;;;;-147.47;100.00;64613.53;5075513;28;45728;-83
2023/05/02 08:20:52;;;;;;;;;20.50;19.00;;;;;-147.47;100.00;64613.53;5054902;28;45648;-82
2023/05/02 08:23:17;;;;;;;;;21.25;18.25;;;;;-147.47;100.00;64613.53;5038916;28;45865;-82
2023/05/02 08:25:43;;;;;;;;;11.50;11.50;;;;;-147.47;100.00;64613.53;5056803;28;45625;-83
2023/05/02 08:28:08;;;;;;;;;22.67;18.67;;;;;-147.47;100.00;64613.53;5065420;28;45547;-81
2023/05/02 08:30:34;;;;;;;;;18.25;13.75;;;;;-147.47;100.00;64613.53;5053926;28;45572;-82
2023/05/02 08:32:59;;;;;;;;;18.50;14.75;;;;;-147.47;100.00;64613.53;5040408;28;45965;-82
2023/05/02 08:35:25;;;;;;;;;13.00;12.50;;;;;-147.47;100.00;64613.53;5057975;28;45773;-82
2023/05/02 08:37:52;;;;;;;;;13.75;12.00;;;;;-147.47;100.00;64613.53;5055921;28;46751;-80
2023/05/02 08:40:21;;;;;;;;;16.75;14.75;;;;;-147.47;100.00;64613.53;5050008;28;45855;-81
2023/05/02 08:42:46;;;;;;;;;13.75;11.50;;;;;-147.47;100.00;64613.53;5050999;28;45644;-82
2023/05/02 08:45:14;;;;;;;;;16.50;14.75;;;;;-147.47;100.00;64613.53;5050006;28;45568;-80
2023/05/02 08:47:40;;;;;;;;;20.25;16.25;;;;;-147.47;100.00;64613.53;5036564;28;47347;-80
2023/05/02 08:50:10;;;;;;;;;13.50;11.75;;;;;-147.47;100.00;64613.53;5052954;28;45568;-81
2023/05/02 08:52:37;;;;;;;;;16.75;14.50;;;;;-147.47;100.00;64613.53;5053156;28;45882;-80
2023/05/02 08:55:05;;;;;;;;;14.75;13.75;;;;;-147.47;100.00;64613.53;5033626;28;45827;-81
2023/05/02 08:57:31;;;;;;;;;15.50;14.25;;;;;-147.47;100.00;64613.53;5059132;28;46558;-83
2023/05/02 08:59:57;;;;;;;;;15.00;14.00;;;;;-147.47;100.00;64613.53;5053801;28;45706;-81
2023/05/02 09:02:40;;;;;;;;;14.00;12.75;;;;;-147.47;100.00;64613.53;5052579;28;45498;-82
2023/05/02 09:05:06;;;;;;;;;16.50;15.25;;;;;-147.47;100.00;64613.53;5053144;28;45423;-81
2023/05/02 09:07:46;;;;;;;;;13.00;11.50;;;;;-147.47;100.00;64613.53;5048629;28;47059;-82
2023/05/02 09:10:12;;;;;;;;;16.25;15.25;;;;;-147.47;100.00;64613.53;5055699;28;45699;-83
2023/05/02 09:12:38;;;;;;;;;14.50;12.50;;;;;-147.47;100.00;64613.53;5066837;28;45649;-80
2023/05/02 09:15:10;;;;;;;;;16.00;14.00;;;;;-147.47;100.00;64613.53;5067704;28;45489;-81
2023/05/02 09:17:45;;;;;;;;;8.25;7.25;;;;;-147.47;100.00;64613.53;5064431;28;45777;-83
2023/05/02 09:20:13;;;;;;;;;13.50;12.50;;;;;-147.47;100.00;64613.53;5049684;28;45581;-82
2023/05/02 09:22:38;;;;;;;;;13.50;11.50;;;;;-147.47;100.00;64613.53;5055285;28;45461;-81
2023/05/02 09:25:06;;;;;;;;;14.25;14.25;;;;;-147.47;100.00;64613.53;5040069;28;47169;-81
2023/05/02 09:27:49;;;;;;;;;17.00;16.00;;;;;-147.47;100.00;64613.53;5043930;28;46072;-82
2023/05/02 09:30:19;;;;;;;;;20.33;13.67;;;;;-147.47;100.00;64613.53;5046979;28;45562;-82
2023/05/02 09:32:45;;;;;;;;;16.75;14.25;;;;;-147.47;100.00;64613.53;5053953;28;45885;-79
2023/05/02 09:35:11;;;;;;;;;17.75;15.25;;;;;-147.47;100.00;64613.53;5059314;28;45778;-82
2023/05/02 09:37:36;;;;;;;;;14.75;13.00;;;;;-147.47;100.00;64613.53;5058069;28;45449;-81
2023/05/02 09:40:06;;;;;;;;;19.00;16.50;;;;;-147.47;100.00;64613.53;5059530;28;45492;-83
2023/05/02 09:42:32;;;;;;;;;10.75;10.75;;;;;-147.47;100.00;64613.53;5035144;28;45431;-84
2023/05/02 09:44:57;;;;;;;;;13.00;12.00;;;;;-147.47;100.00;64613.53;5046323;28;46362;-84
2023/05/02 09:47:26;;;;;;;;;16.00;15.50;;;;;-147.47;100.00;64613.53;5052640;28;45438;-83
2023/05/02 09:49:51;;;;;;;;;16.75;16.25;;;;;-147.47;100.00;64613.53;5038569;28;45385;-84
2023/05/02 09:52:20;;;;;;;;;17.50;15.00;;;;;-147.47;100.00;64613.53;5045730;28;45721;-84
2023/05/02 09:54:46;;;;;;;;;16.00;11.50;;;;;-147.47;100.00;64613.53;5065163;28;45870;-83
2023/05/02 09:57:12;;;;;;;;;17.25;12.75;;;;;-147.47;100.00;64613.53;5048232;28;47041;-82
2023/05/02 09:59:41;;;;;;;;;17.25;16.00;;;;;-147.47;100.00;64613.53;5040988;28;45875;-85
2023/05/02 10:02:09;;;;;;;;;21.00;15.25;;;;;-147.47;100.00;64613.53;5050771;28;45804;-84
2023/05/02 10:04:35;;;;;;;;;16.50;15.50;;;;;-147.47;100.00;64613.53;5048964;28;46229;-83
2023/05/02 10:07:02;;;;;;;;;12.75;12.75;;;;;-147.47;100.00;64613.53;5049769;28;47255;-84
2023/05/02 10:09:32;;;;;;;;;15.00;13.75;;;;;-147.47;100.00;64613.53;5056816;28;45800;-82
2023/05/02 10:12:07;;;;;;;;;13.00;12.25;;;;;-147.47;100.00;64613.53;5047746;28;45828;-82
2023/05/02 10:14:42;;;;;;;;;16.50;15.75;;;;;-147.47;100.00;64613.53;5073756;28;45461;-83
2023/05/02 10:17:26;;;;;;;;;15.50;13.75;;;;;-147.47;100.00;64613.53;5069746;28;45646;-83
2023/05/02 10:19:52;;;;;;;;;20.75;17.00;;;;;-147.47;100.00;64613.53;5049888;28;45550;-83
2023/05/02 10:22:20;;;;;;;;;14.25;14.25;;;;;-147.47;100.00;64613.53;5050682;28;45493;-85
2023/05/02 10:24:49;;;;;;;;;17.75;16.75;;;;;-147.47;100.00;64613.53;5040476;28;46114;-84
2023/05/02 10:27:15;;;;;;;;;17.25;17.25;;;;;-147.47;100.00;64613.53;5046802;28;45871;-83
2023/05/02 10:29:41;;;;;;;;;19.50;16.00;;;;;-147.47;100.00;64613.53;5046336;28;45904;-84
2023/05/02 10:32:08;;;;;;;;;19.67;18.33;;;;;-147.47;100.00;64613.53;5043773;28;45565;-84
2023/05/02 10:34:34;;;;;;;;;16.50;16.50;;;;;-147.47;100.00;64613.53;5030981;28;46009;-83
2023/05/02 10:37:00;;;;;;;;;19.00;17.33;;;;;-147.47;100.00;64613.53;5048170;28;45838;-81
2023/05/02 10:39:31;;;;;;;;;23.67;22.33;;;;;-147.47;100.00;64613.53;5034439;28;45799;-83
2023/05/02 10:42:01;;;;;;;;;22.67;19.33;;;;;-147.47;100.00;64613.53;5051265;28;45785;-83
2023/05/02 10:44:36;;;;;;;;;24.00;19.00;;;;;-147.47;100.00;64613.53;5055049;28;45897;-84
2023/05/02 10:47:21;;;;;;;;;23.00;21.33;;;;;-147.47;100.00;64613.53;5057810;28;45996;-86
2023/05/02 10:50:00;;;;;;;;;26.67;24.00;;;;;-147.47;100.00;64613.53;5036653;28;45783;-84
2023/05/02 10:52:34;;;;;;;;;24.33;19.67;;;;;-147.47;100.00;64613.53;5040639;28;45896;-85
2023/05/02 10:55:22;;;;;;;;;21.33;18.67;;;;;-147.47;100.00;64613.53;5061746;28;45669;-87
2023/05/02 10:57:59;;;;;;;;;24.33;23.67;;;;;-147.47;100.00;64613.53;5054915;28;45475;-85